Summerside, Canada
Current Conditions -  °F | °C
As of 6:00 PM on Sunday 23 Nov 2014 (Local Time) from CYYG Reporting Station
Broken Clouds Broken Clouds  
Wind Chill: 33°   Ceiling: 4700
Heat Index: 37°   Visibility: 15mi
Dew Point: 28°   Wind: 6mph
Humidity: 70%   Direction: 250°WSW
Pressure: 30.11"   Gusts: NA
Location:  46.39°N, 63.79°W
Report Text: CYYG 232200Z 25005KT 15SM BKN047 BKN240 03/M02 A3011 RMK SC5CI2 SLP198
Loading
Personal Weather Stations






























Interactive Weather Map New forecast layout! Learn more

10-Day Weather Forecast

Advertisements
Track Severe Weather on mobile